sensor_id;sensor_type;location;lat;lon;timestamp;P1;durP1;ratioP1;P2;durP2;ratioP2
908;SDS011;441;51.192;6.788;2024-02-15T00:02:07;22.20;;;21.50;;
908;SDS011;441;51.192;6.788;2024-02-15T00:04:34;22.10;;;21.40;;
908;SDS011;441;51.192;6.788;2024-02-15T00:07:04;23.10;;;22.30;;
908;SDS011;441;51.192;6.788;2024-02-15T00:09:30;23.97;;;23.10;;
908;SDS011;441;51.192;6.788;2024-02-15T00:11:57;28.23;;;27.23;;
908;SDS011;441;51.192;6.788;2024-02-15T00:14:25;24.00;;;23.20;;
908;SDS011;441;51.192;6.788;2024-02-15T00:16:53;22.63;;;21.83;;
908;SDS011;441;51.192;6.788;2024-02-15T00:19:20;21.80;;;21.10;;
908;SDS011;441;51.192;6.788;2024-02-15T00:21:48;22.30;;;21.50;;
908;SDS011;441;51.192;6.788;2024-02-15T00:24:16;23.47;;;22.67;;
908;SDS011;441;51.192;6.788;2024-02-15T00:26:43;23.20;;;22.40;;
908;SDS011;441;51.192;6.788;2024-02-15T00:29:10;22.23;;;21.43;;
908;SDS011;441;51.192;6.788;2024-02-15T00:31:37;22.27;;;21.43;;
908;SDS011;441;51.192;6.788;2024-02-15T00:34:04;21.60;;;20.90;;
908;SDS011;441;51.192;6.788;2024-02-15T00:36:31;23.70;;;22.90;;
908;SDS011;441;51.192;6.788;2024-02-15T00:38:58;21.90;;;21.00;;
908;SDS011;441;51.192;6.788;2024-02-15T00:41:26;23.00;;;22.20;;
908;SDS011;441;51.192;6.788;2024-02-15T00:43:54;22.67;;;21.87;;
908;SDS011;441;51.192;6.788;2024-02-15T00:46:20;21.80;;;21.10;;
908;SDS011;441;51.192;6.788;2024-02-15T00:48:47;22.17;;;21.47;;
908;SDS011;441;51.192;6.788;2024-02-15T00:51:14;22.70;;;21.90;;
908;SDS011;441;51.192;6.788;2024-02-15T00:53:41;22.60;;;21.80;;
908;SDS011;441;51.192;6.788;2024-02-15T00:56:08;21.63;;;20.83;;
908;SDS011;441;51.192;6.788;2024-02-15T00:58:36;21.63;;;20.93;;
908;SDS011;441;51.192;6.788;2024-02-15T01:01:03;21.97;;;21.27;;
908;SDS011;441;51.192;6.788;2024-02-15T01:03:30;21.90;;;21.10;;
908;SDS011;441;51.192;6.788;2024-02-15T01:05:57;22.10;;;21.30;;
908;SDS011;441;51.192;6.788;2024-02-15T01:08:24;22.43;;;21.63;;
908;SDS011;441;51.192;6.788;2024-02-15T01:10:50;22.00;;;21.20;;
908;SDS011;441;51.192;6.788;2024-02-15T01:13:17;21.77;;;20.97;;
908;SDS011;441;51.192;6.788;2024-02-15T01:15:46;22.60;;;21.80;;
908;SDS011;441;51.192;6.788;2024-02-15T01:18:12;23.27;;;22.47;;
908;SDS011;441;51.192;6.788;2024-02-15T01:20:39;22.57;;;21.77;;
908;SDS011;441;51.192;6.788;2024-02-15T01:23:06;22.13;;;21.43;;
908;SDS011;441;51.192;6.788;2024-02-15T01:25:34;22.77;;;21.97;;
908;SDS011;441;51.192;6.788;2024-02-15T01:28:00;22.30;;;21.50;;
908;SDS011;441;51.192;6.788;2024-02-15T01:30:28;21.97;;;21.23;;
908;SDS011;441;51.192;6.788;2024-02-15T01:32:56;22.20;;;21.40;;
908;SDS011;441;51.192;6.788;2024-02-15T01:35:24;21.90;;;21.10;;
908;SDS011;441;51.192;6.788;2024-02-15T01:37:51;22.70;;;21.90;;
908;SDS011;441;51.192;6.788;2024-02-15T01:40:18;22.00;;;21.30;;
908;SDS011;441;51.192;6.788;2024-02-15T01:42:45;22.40;;;21.60;;
908;SDS011;441;51.192;6.788;2024-02-15T01:45:14;22.10;;;21.40;;
908;SDS011;441;51.192;6.788;2024-02-15T01:47:41;22.23;;;21.43;;
908;SDS011;441;51.192;6.788;2024-02-15T01:50:10;22.43;;;21.63;;
908;SDS011;441;51.192;6.788;2024-02-15T01:52:40;22.83;;;22.03;;
908;SDS011;441;51.192;6.788;2024-02-15T01:55:09;23.17;;;22.37;;
908;SDS011;441;51.192;6.788;2024-02-15T01:57:36;22.27;;;21.57;;
908;SDS011;441;51.192;6.788;2024-02-15T02:00:04;22.73;;;22.00;;
908;SDS011;441;51.192;6.788;2024-02-15T02:02:34;22.10;;;21.37;;
908;SDS011;441;51.192;6.788;2024-02-15T02:05:04;23.27;;;22.47;;
908;SDS011;441;51.192;6.788;2024-02-15T02:07:33;29.80;;;28.80;;
908;SDS011;441;51.192;6.788;2024-02-15T02:10:00;29.13;;;28.13;;
908;SDS011;441;51.192;6.788;2024-02-15T02:12:27;22.00;;;21.30;;
908;SDS011;441;51.192;6.788;2024-02-15T02:14:54;23.40;;;22.60;;
908;SDS011;441;51.192;6.788;2024-02-15T02:17:21;22.40;;;21.70;;
908;SDS011;441;51.192;6.788;2024-02-15T02:19:48;22.03;;;21.23;;
908;SDS011;441;51.192;6.788;2024-02-15T02:22:16;23.00;;;22.23;;
908;SDS011;441;51.192;6.788;2024-02-15T02:27:23;21.67;;;20.97;;
908;SDS011;441;51.192;6.788;2024-02-15T02:29:52;22.33;;;21.63;;
908;SDS011;441;51.192;6.788;2024-02-15T02:32:21;22.00;;;21.30;;
908;SDS011;441;51.192;6.788;2024-02-15T02:34:47;21.77;;;20.97;;
908;SDS011;441;51.192;6.788;2024-02-15T02:37:14;23.90;;;23.00;;
908;SDS011;441;51.192;6.788;2024-02-15T02:39:42;23.07;;;22.27;;
908;SDS011;441;51.192;6.788;2024-02-15T02:42:10;21.90;;;21.10;;
908;SDS011;441;51.192;6.788;2024-02-15T02:44:38;21.70;;;21.00;;
908;SDS011;441;51.192;6.788;2024-02-15T02:47:04;21.63;;;20.93;;
908;SDS011;441;51.192;6.788;2024-02-15T02:49:31;21.70;;;21.00;;
908;SDS011;441;51.192;6.788;2024-02-15T02:51:59;22.80;;;22.00;;
908;SDS011;441;51.192;6.788;2024-02-15T02:54:25;22.67;;;21.87;;
908;SDS011;441;51.192;6.788;2024-02-15T02:56:53;21.70;;;21.00;;
908;SDS011;441;51.192;6.788;2024-02-15T02:59:21;22.70;;;21.90;;
908;SDS011;441;51.192;6.788;2024-02-15T03:01:49;22.50;;;21.70;;
908;SDS011;441;51.192;6.788;2024-02-15T03:04:15;23.10;;;22.20;;
908;SDS011;441;51.192;6.788;2024-02-15T03:06:43;23.20;;;22.40;;
908;SDS011;441;51.192;6.788;2024-02-15T03:09:10;22.20;;;21.50;;
908;SDS011;441;51.192;6.788;2024-02-15T03:11:39;21.83;;;21.13;;
908;SDS011;441;51.192;6.788;2024-02-15T03:14:06;22.50;;;21.70;;
908;SDS011;441;51.192;6.788;2024-02-15T03:16:34;22.37;;;21.67;;
908;SDS011;441;51.192;6.788;2024-02-15T03:19:01;22.77;;;21.97;;
908;SDS011;441;51.192;6.788;2024-02-15T03:21:29;22.63;;;21.73;;
908;SDS011;441;51.192;6.788;2024-02-15T03:23:56;22.10;;;21.37;;
908;SDS011;441;51.192;6.788;2024-02-15T03:26:29;24.80;;;23.90;;
908;SDS011;441;51.192;6.788;2024-02-15T03:29:03;24.00;;;23.20;;
908;SDS011;441;51.192;6.788;2024-02-15T03:31:30;24.10;;;23.30;;
908;SDS011;441;51.192;6.788;2024-02-15T03:33:58;24.80;;;24.00;;
908;SDS011;441;51.192;6.788;2024-02-15T03:36:25;28.23;;;27.33;;
908;SDS011;441;51.192;6.788;2024-02-15T03:38:54;22.40;;;21.60;;
908;SDS011;441;51.192;6.788;2024-02-15T03:41:21;24.07;;;23.00;;
908;SDS011;441;51.192;6.788;2024-02-15T03:43:48;22.50;;;21.70;;
908;SDS011;441;51.192;6.788;2024-02-15T03:46:15;22.23;;;21.53;;
908;SDS011;441;51.192;6.788;2024-02-15T03:48:42;22.53;;;21.83;;
908;SDS011;441;51.192;6.788;2024-02-15T03:51:15;23.33;;;22.53;;
908;SDS011;441;51.192;6.788;2024-02-15T03:53:43;23.07;;;22.27;;
908;SDS011;441;51.192;6.788;2024-02-15T03:56:10;22.60;;;21.80;;
908;SDS011;441;51.192;6.788;2024-02-15T03:58:37;23.03;;;22.23;;
908;SDS011;441;51.192;6.788;2024-02-15T04:01:04;22.97;;;22.17;;
908;SDS011;441;51.192;6.788;2024-02-15T04:03:34;23.87;;;23.07;;
908;SDS011;441;51.192;6.788;2024-02-15T04:06:02;23.60;;;22.80;;
908;SDS011;441;51.192;6.788;2024-02-15T04:08:30;24.90;;;24.00;;
908;SDS011;441;51.192;6.788;2024-02-15T04:10:58;23.50;;;22.70;;
908;SDS011;441;51.192;6.788;2024-02-15T04:13:25;23.47;;;22.67;;
908;SDS011;441;51.192;6.788;2024-02-15T04:15:52;23.13;;;22.33;;
908;SDS011;441;51.192;6.788;2024-02-15T04:18:19;23.83;;;23.03;;
908;SDS011;441;51.192;6.788;2024-02-15T04:20:45;23.60;;;22.77;;
908;SDS011;441;51.192;6.788;2024-02-15T04:23:14;24.50;;;23.60;;
908;SDS011;441;51.192;6.788;2024-02-15T04:25:42;23.57;;;22.67;;
908;SDS011;441;51.192;6.788;2024-02-15T04:28:15;23.60;;;22.70;;
908;SDS011;441;51.192;6.788;2024-02-15T04:30:42;24.90;;;24.03;;
908;SDS011;441;51.192;6.788;2024-02-15T04:33:11;23.60;;;22.80;;
908;SDS011;441;51.192;6.788;2024-02-15T04:35:40;24.20;;;23.40;;
908;SDS011;441;51.192;6.788;2024-02-15T04:38:07;22.97;;;22.17;;
908;SDS011;441;51.192;6.788;2024-02-15T04:40:34;22.93;;;22.13;;
908;SDS011;441;51.192;6.788;2024-02-15T04:43:04;24.10;;;23.10;;
908;SDS011;441;51.192;6.788;2024-02-15T04:45:31;23.63;;;22.63;;
908;SDS011;441;51.192;6.788;2024-02-15T04:47:58;23.17;;;22.37;;
908;SDS011;441;51.192;6.788;2024-02-15T04:50:27;23.73;;;22.90;;
908;SDS011;441;51.192;6.788;2024-02-15T04:52:54;23.10;;;22.20;;
908;SDS011;441;51.192;6.788;2024-02-15T04:55:21;22.80;;;22.00;;
908;SDS011;441;51.192;6.788;2024-02-15T04:57:48;22.10;;;21.30;;
908;SDS011;441;51.192;6.788;2024-02-15T05:00:21;23.73;;;22.77;;
908;SDS011;441;51.192;6.788;2024-02-15T05:02:50;25.17;;;24.27;;
908;SDS011;441;51.192;6.788;2024-02-15T05:05:18;26.67;;;25.67;;
908;SDS011;441;51.192;6.788;2024-02-15T05:07:45;26.00;;;25.10;;
908;SDS011;441;51.192;6.788;2024-02-15T05:10:14;26.03;;;25.13;;
908;SDS011;441;51.192;6.788;2024-02-15T05:12:42;26.90;;;26.00;;
908;SDS011;441;51.192;6.788;2024-02-15T05:15:09;25.23;;;24.33;;
908;SDS011;441;51.192;6.788;2024-02-15T05:17:38;26.73;;;25.73;;
908;SDS011;441;51.192;6.788;2024-02-15T05:20:07;26.77;;;25.67;;
908;SDS011;441;51.192;6.788;2024-02-15T05:22:37;25.43;;;24.53;;
908;SDS011;441;51.192;6.788;2024-02-15T05:25:06;26.87;;;25.90;;
908;SDS011;441;51.192;6.788;2024-02-15T05:27:33;25.63;;;24.63;;
908;SDS011;441;51.192;6.788;2024-02-15T05:30:00;27.20;;;25.80;;
908;SDS011;441;51.192;6.788;2024-02-15T05:32:27;31.13;;;28.83;;
908;SDS011;441;51.192;6.788;2024-02-15T05:34:55;28.17;;;26.00;;
908;SDS011;441;51.192;6.788;2024-02-15T05:37:22;28.07;;;26.77;;
908;SDS011;441;51.192;6.788;2024-02-15T05:39:49;27.97;;;26.67;;
908;SDS011;441;51.192;6.788;2024-02-15T05:42:20;28.37;;;26.70;;
908;SDS011;441;51.192;6.788;2024-02-15T05:44:47;28.17;;;26.97;;
908;SDS011;441;51.192;6.788;2024-02-15T05:47:15;29.00;;;27.40;;
908;SDS011;441;51.192;6.788;2024-02-15T05:49:42;29.47;;;27.57;;
908;SDS011;441;51.192;6.788;2024-02-15T05:52:11;27.80;;;26.50;;
908;SDS011;441;51.192;6.788;2024-02-15T05:54:38;27.77;;;26.10;;
908;SDS011;441;51.192;6.788;2024-02-15T05:57:06;27.97;;;26.60;;
908;SDS011;441;51.192;6.788;2024-02-15T05:59:34;31.10;;;29.70;;
908;SDS011;441;51.192;6.788;2024-02-15T06:02:00;35.00;;;32.83;;
908;SDS011;441;51.192;6.788;2024-02-15T06:04:28;31.80;;;29.90;;
908;SDS011;441;51.192;6.788;2024-02-15T06:06:55;28.77;;;27.13;;
908;SDS011;441;51.192;6.788;2024-02-15T06:09:27;29.40;;;28.00;;
908;SDS011;441;51.192;6.788;2024-02-15T06:11:56;29.30;;;27.47;;
908;SDS011;441;51.192;6.788;2024-02-15T06:14:23;28.93;;;27.67;;
908;SDS011;441;51.192;6.788;2024-02-15T06:16:50;29.83;;;28.23;;
908;SDS011;441;51.192;6.788;2024-02-15T06:19:20;28.50;;;27.20;;
908;SDS011;441;51.192;6.788;2024-02-15T06:21:47;29.00;;;27.30;;
908;SDS011;441;51.192;6.788;2024-02-15T06:24:14;29.53;;;28.10;;
908;SDS011;441;51.192;6.788;2024-02-15T06:26:42;27.97;;;26.77;;
908;SDS011;441;51.192;6.788;2024-02-15T06:29:09;28.87;;;27.47;;
908;SDS011;441;51.192;6.788;2024-02-15T06:31:53;27.23;;;25.83;;
908;SDS011;441;51.192;6.788;2024-02-15T06:34:38;26.90;;;25.40;;
908;SDS011;441;51.192;6.788;2024-02-15T06:37:35;26.60;;;25.20;;
908;SDS011;441;51.192;6.788;2024-02-15T06:40:20;26.90;;;25.63;;
908;SDS011;441;51.192;6.788;2024-02-15T06:42:49;25.70;;;24.60;;
908;SDS011;441;51.192;6.788;2024-02-15T06:45:16;25.73;;;24.53;;
908;SDS011;441;51.192;6.788;2024-02-15T06:47:44;27.37;;;26.17;;
908;SDS011;441;51.192;6.788;2024-02-15T06:50:12;26.83;;;25.53;;
908;SDS011;441;51.192;6.788;2024-02-15T06:52:39;27.67;;;26.07;;
908;SDS011;441;51.192;6.788;2024-02-15T06:55:07;25.70;;;24.60;;
908;SDS011;441;51.192;6.788;2024-02-15T06:57:37;25.53;;;24.53;;
908;SDS011;441;51.192;6.788;2024-02-15T07:00:07;26.77;;;25.57;;
908;SDS011;441;51.192;6.788;2024-02-15T07:02:39;27.70;;;26.60;;
908;SDS011;441;51.192;6.788;2024-02-15T07:05:06;26.97;;;25.77;;
908;SDS011;441;51.192;6.788;2024-02-15T07:07:35;30.50;;;29.10;;
908;SDS011;441;51.192;6.788;2024-02-15T07:10:04;27.37;;;26.23;;
908;SDS011;441;51.192;6.788;2024-02-15T07:12:31;29.30;;;28.10;;
908;SDS011;441;51.192;6.788;2024-02-15T07:14:58;29.47;;;28.10;;
908;SDS011;441;51.192;6.788;2024-02-15T07:17:27;27.67;;;26.53;;
908;SDS011;441;51.192;6.788;2024-02-15T07:19:54;28.70;;;27.50;;
908;SDS011;441;51.192;6.788;2024-02-15T07:22:21;28.77;;;27.57;;
908;SDS011;441;51.192;6.788;2024-02-15T07:24:48;28.90;;;27.50;;
908;SDS011;441;51.192;6.788;2024-02-15T07:27:15;28.67;;;27.50;;
908;SDS011;441;51.192;6.788;2024-02-15T07:29:43;28.97;;;27.57;;
908;SDS011;441;51.192;6.788;2024-02-15T07:32:10;29.30;;;28.10;;
908;SDS011;441;51.192;6.788;2024-02-15T07:34:39;29.17;;;27.97;;
908;SDS011;441;51.192;6.788;2024-02-15T07:37:06;28.27;;;27.13;;
908;SDS011;441;51.192;6.788;2024-02-15T07:39:34;27.97;;;26.87;;
908;SDS011;441;51.192;6.788;2024-02-15T07:42:01;27.27;;;26.27;;
908;SDS011;441;51.192;6.788;2024-02-15T07:44:29;29.40;;;28.10;;
908;SDS011;441;51.192;6.788;2024-02-15T07:46:57;29.53;;;28.43;;
908;SDS011;441;51.192;6.788;2024-02-15T07:49:25;29.13;;;27.83;;
908;SDS011;441;51.192;6.788;2024-02-15T07:51:53;28.10;;;27.00;;
908;SDS011;441;51.192;6.788;2024-02-15T07:54:20;28.00;;;26.83;;
908;SDS011;441;51.192;6.788;2024-02-15T07:56:49;26.77;;;25.57;;
908;SDS011;441;51.192;6.788;2024-02-15T07:59:16;27.40;;;26.40;;
908;SDS011;441;51.192;6.788;2024-02-15T08:01:43;27.87;;;26.63;;
908;SDS011;441;51.192;6.788;2024-02-15T08:04:12;29.20;;;28.10;;
908;SDS011;441;51.192;6.788;2024-02-15T08:06:39;29.10;;;27.80;;
908;SDS011;441;51.192;6.788;2024-02-15T08:09:08;28.50;;;27.43;;
908;SDS011;441;51.192;6.788;2024-02-15T08:11:38;28.67;;;27.47;;
908;SDS011;441;51.192;6.788;2024-02-15T08:14:05;29.87;;;28.53;;
908;SDS011;441;51.192;6.788;2024-02-15T08:16:35;29.60;;;28.40;;
908;SDS011;441;51.192;6.788;2024-02-15T08:19:05;30.53;;;29.33;;
908;SDS011;441;51.192;6.788;2024-02-15T08:21:32;30.90;;;29.50;;
908;SDS011;441;51.192;6.788;2024-02-15T08:24:01;29.67;;;28.57;;
908;SDS011;441;51.192;6.788;2024-02-15T08:26:32;29.83;;;28.73;;
908;SDS011;441;51.192;6.788;2024-02-15T08:29:00;30.30;;;29.20;;
908;SDS011;441;51.192;6.788;2024-02-15T08:31:28;28.97;;;27.80;;
908;SDS011;441;51.192;6.788;2024-02-15T08:33:55;29.53;;;28.33;;
908;SDS011;441;51.192;6.788;2024-02-15T08:36:22;29.60;;;28.40;;
908;SDS011;441;51.192;6.788;2024-02-15T08:38:49;30.30;;;28.93;;
908;SDS011;441;51.192;6.788;2024-02-15T08:41:16;29.57;;;28.37;;
908;SDS011;441;51.192;6.788;2024-02-15T08:43:47;29.13;;;28.03;;
908;SDS011;441;51.192;6.788;2024-02-15T08:46:14;30.40;;;29.00;;
908;SDS011;441;51.192;6.788;2024-02-15T08:48:41;29.50;;;28.40;;
908;SDS011;441;51.192;6.788;2024-02-15T08:51:08;28.27;;;27.27;;
908;SDS011;441;51.192;6.788;2024-02-15T08:53:35;29.03;;;27.87;;
908;SDS011;441;51.192;6.788;2024-02-15T08:56:02;29.73;;;28.43;;
908;SDS011;441;51.192;6.788;2024-02-15T08:58:30;28.50;;;27.30;;
908;SDS011;441;51.192;6.788;2024-02-15T09:00:58;29.07;;;27.87;;
908;SDS011;441;51.192;6.788;2024-02-15T09:03:24;29.37;;;28.10;;
908;SDS011;441;51.192;6.788;2024-02-15T09:05:51;29.40;;;28.30;;
908;SDS011;441;51.192;6.788;2024-02-15T09:08:18;29.80;;;28.60;;
908;SDS011;441;51.192;6.788;2024-02-15T09:10:45;30.20;;;29.07;;
908;SDS011;441;51.192;6.788;2024-02-15T09:13:12;28.63;;;27.60;;
908;SDS011;441;51.192;6.788;2024-02-15T09:15:39;29.10;;;28.00;;
908;SDS011;441;51.192;6.788;2024-02-15T09:18:08;27.70;;;26.60;;
908;SDS011;441;51.192;6.788;2024-02-15T09:20:35;27.00;;;25.90;;
908;SDS011;441;51.192;6.788;2024-02-15T09:23:05;27.47;;;26.37;;
908;SDS011;441;51.192;6.788;2024-02-15T09:25:34;29.03;;;27.57;;
908;SDS011;441;51.192;6.788;2024-02-15T09:28:05;28.20;;;27.10;;
908;SDS011;441;51.192;6.788;2024-02-15T09:30:32;28.20;;;27.13;;
908;SDS011;441;51.192;6.788;2024-02-15T09:33:00;28.53;;;27.43;;
908;SDS011;441;51.192;6.788;2024-02-15T09:35:31;27.90;;;26.80;;
908;SDS011;441;51.192;6.788;2024-02-15T09:37:58;28.50;;;27.40;;
908;SDS011;441;51.192;6.788;2024-02-15T09:40:26;28.17;;;27.07;;
908;SDS011;441;51.192;6.788;2024-02-15T09:42:54;27.83;;;26.60;;
908;SDS011;441;51.192;6.788;2024-02-15T09:45:21;29.30;;;28.20;;
908;SDS011;441;51.192;6.788;2024-02-15T09:47:50;27.80;;;26.80;;
908;SDS011;441;51.192;6.788;2024-02-15T09:50:18;28.30;;;27.30;;
908;SDS011;441;51.192;6.788;2024-02-15T09:52:51;28.00;;;26.90;;
908;SDS011;441;51.192;6.788;2024-02-15T09:55:19;27.83;;;26.83;;
908;SDS011;441;51.192;6.788;2024-02-15T09:57:48;28.23;;;27.13;;
908;SDS011;441;51.192;6.788;2024-02-15T10:00:16;28.37;;;27.30;;
908;SDS011;441;51.192;6.788;2024-02-15T10:02:44;26.93;;;25.83;;
908;SDS011;441;51.192;6.788;2024-02-15T10:05:13;27.20;;;26.20;;
908;SDS011;441;51.192;6.788;2024-02-15T10:07:40;27.70;;;26.60;;
908;SDS011;441;51.192;6.788;2024-02-15T10:10:17;29.03;;;27.93;;
908;SDS011;441;51.192;6.788;2024-02-15T10:12:45;29.50;;;28.40;;
908;SDS011;441;51.192;6.788;2024-02-15T10:15:26;28.23;;;27.13;;
908;SDS011;441;51.192;6.788;2024-02-15T10:17:55;27.90;;;26.80;;
908;SDS011;441;51.192;6.788;2024-02-15T10:20:22;28.10;;;26.90;;
908;SDS011;441;51.192;6.788;2024-02-15T10:22:51;27.93;;;26.90;;
908;SDS011;441;51.192;6.788;2024-02-15T10:25:20;28.33;;;27.23;;
908;SDS011;441;51.192;6.788;2024-02-15T10:27:47;28.20;;;27.10;;
908;SDS011;441;51.192;6.788;2024-02-15T10:30:15;27.90;;;26.83;;
908;SDS011;441;51.192;6.788;2024-02-15T10:32:43;28.13;;;27.10;;
908;SDS011;441;51.192;6.788;2024-02-15T10:35:10;29.57;;;28.47;;
908;SDS011;441;51.192;6.788;2024-02-15T10:37:45;28.00;;;27.00;;
908;SDS011;441;51.192;6.788;2024-02-15T10:40:16;28.87;;;27.77;;
908;SDS011;441;51.192;6.788;2024-02-15T10:42:46;29.30;;;28.20;;
908;SDS011;441;51.192;6.788;2024-02-15T10:45:15;29.63;;;28.53;;
908;SDS011;441;51.192;6.788;2024-02-15T10:47:43;28.93;;;27.73;;
908;SDS011;441;51.192;6.788;2024-02-15T10:50:10;28.10;;;26.90;;
908;SDS011;441;51.192;6.788;2024-02-15T10:52:40;29.10;;;28.00;;
908;SDS011;441;51.192;6.788;2024-02-15T10:55:11;28.40;;;27.40;;
908;SDS011;441;51.192;6.788;2024-02-15T10:57:44;29.03;;;28.03;;
908;SDS011;441;51.192;6.788;2024-02-15T11:00:17;28.47;;;27.47;;
908;SDS011;441;51.192;6.788;2024-02-15T11:02:53;28.60;;;27.60;;
908;SDS011;441;51.192;6.788;2024-02-15T11:05:27;29.10;;;27.97;;
908;SDS011;441;51.192;6.788;2024-02-15T11:07:58;28.40;;;27.40;;
908;SDS011;441;51.192;6.788;2024-02-15T11:10:25;29.33;;;28.20;;
908;SDS011;441;51.192;6.788;2024-02-15T11:12:54;28.10;;;27.10;;
908;SDS011;441;51.192;6.788;2024-02-15T11:15:43;28.83;;;27.73;;
908;SDS011;441;51.192;6.788;2024-02-15T11:21:10;29.23;;;28.07;;
908;SDS011;441;51.192;6.788;2024-02-15T11:23:37;30.70;;;29.50;;
908;SDS011;441;51.192;6.788;2024-02-15T11:26:05;29.03;;;27.93;;
908;SDS011;441;51.192;6.788;2024-02-15T11:28:40;29.60;;;28.60;;
908;SDS011;441;51.192;6.788;2024-02-15T11:40:11;27.97;;;26.97;;
908;SDS011;441;51.192;6.788;2024-02-15T11:42:38;28.80;;;27.80;;
908;SDS011;441;51.192;6.788;2024-02-15T11:45:07;29.20;;;28.20;;
908;SDS011;441;51.192;6.788;2024-02-15T11:47:36;29.57;;;28.57;;
908;SDS011;441;51.192;6.788;2024-02-15T11:50:05;29.30;;;28.20;;
908;SDS011;441;51.192;6.788;2024-02-15T11:52:34;28.17;;;27.17;;
908;SDS011;441;51.192;6.788;2024-02-15T11:55:04;29.80;;;28.70;;
908;SDS011;441;51.192;6.788;2024-02-15T11:57:35;30.53;;;29.43;;
908;SDS011;441;51.192;6.788;2024-02-15T12:00:19;29.43;;;28.33;;
908;SDS011;441;51.192;6.788;2024-02-15T12:03:05;29.27;;;28.17;;
908;SDS011;441;51.192;6.788;2024-02-15T12:05:50;28.90;;;27.90;;
908;SDS011;441;51.192;6.788;2024-02-15T12:08:35;28.60;;;27.60;;
908;SDS011;441;51.192;6.788;2024-02-15T12:11:19;28.57;;;27.57;;
908;SDS011;441;51.192;6.788;2024-02-15T12:14:03;29.80;;;28.70;;
908;SDS011;441;51.192;6.788;2024-02-15T12:16:50;31.40;;;30.30;;
908;SDS011;441;51.192;6.788;2024-02-15T12:19:59;29.20;;;28.20;;
908;SDS011;441;51.192;6.788;2024-02-15T12:22:32;29.97;;;28.87;;
908;SDS011;441;51.192;6.788;2024-02-15T12:25:00;28.83;;;27.83;;
908;SDS011;441;51.192;6.788;2024-02-15T12:27:31;30.57;;;29.47;;
908;SDS011;441;51.192;6.788;2024-02-15T12:29:59;28.70;;;27.60;;
908;SDS011;441;51.192;6.788;2024-02-15T12:32:28;28.90;;;27.80;;
908;SDS011;441;51.192;6.788;2024-02-15T12:35:09;30.60;;;29.50;;
908;SDS011;441;51.192;6.788;2024-02-15T12:37:37;29.27;;;28.23;;
908;SDS011;441;51.192;6.788;2024-02-15T12:40:09;30.40;;;29.30;;
908;SDS011;441;51.192;6.788;2024-02-15T12:42:40;31.60;;;30.50;;
908;SDS011;441;51.192;6.788;2024-02-15T12:45:14;29.43;;;28.37;;
908;SDS011;441;51.192;6.788;2024-02-15T12:47:46;30.10;;;29.00;;
908;SDS011;441;51.192;6.788;2024-02-15T12:50:15;29.23;;;28.03;;
908;SDS011;441;51.192;6.788;2024-02-15T12:52:42;29.37;;;28.27;;
908;SDS011;441;51.192;6.788;2024-02-15T12:55:13;30.27;;;29.17;;
908;SDS011;441;51.192;6.788;2024-02-15T12:57:42;28.90;;;27.90;;
908;SDS011;441;51.192;6.788;2024-02-15T13:00:12;27.90;;;26.90;;
908;SDS011;441;51.192;6.788;2024-02-15T13:02:43;30.60;;;29.50;;
908;SDS011;441;51.192;6.788;2024-02-15T13:05:11;28.70;;;27.63;;
908;SDS011;441;51.192;6.788;2024-02-15T13:07:39;28.40;;;27.40;;
908;SDS011;441;51.192;6.788;2024-02-15T13:10:06;27.93;;;26.93;;
908;SDS011;441;51.192;6.788;2024-02-15T13:12:34;28.90;;;27.90;;
908;SDS011;441;51.192;6.788;2024-02-15T13:15:02;29.50;;;28.50;;
908;SDS011;441;51.192;6.788;2024-02-15T13:17:30;29.77;;;28.67;;
908;SDS011;441;51.192;6.788;2024-02-15T13:19:58;29.63;;;28.60;;
908;SDS011;441;51.192;6.788;2024-02-15T13:22:31;30.97;;;29.87;;
908;SDS011;441;51.192;6.788;2024-02-15T13:24:59;30.33;;;29.23;;
908;SDS011;441;51.192;6.788;2024-02-15T13:27:28;27.90;;;26.90;;
908;SDS011;441;51.192;6.788;2024-02-15T13:29:55;28.60;;;27.60;;
908;SDS011;441;51.192;6.788;2024-02-15T13:32:23;29.43;;;28.43;;
908;SDS011;441;51.192;6.788;2024-02-15T13:34:50;29.50;;;28.50;;
908;SDS011;441;51.192;6.788;2024-02-15T13:37:21;28.50;;;27.50;;
908;SDS011;441;51.192;6.788;2024-02-15T13:39:49;29.20;;;28.20;;
908;SDS011;441;51.192;6.788;2024-02-15T13:42:16;29.37;;;28.27;;
908;SDS011;441;51.192;6.788;2024-02-15T13:44:44;28.80;;;27.80;;
908;SDS011;441;51.192;6.788;2024-02-15T13:47:12;27.40;;;26.40;;
908;SDS011;441;51.192;6.788;2024-02-15T13:49:41;28.30;;;27.20;;
908;SDS011;441;51.192;6.788;2024-02-15T13:52:08;28.30;;;27.30;;
908;SDS011;441;51.192;6.788;2024-02-15T13:54:36;28.73;;;27.63;;
908;SDS011;441;51.192;6.788;2024-02-15T13:57:05;29.70;;;28.60;;
908;SDS011;441;51.192;6.788;2024-02-15T13:59:32;29.20;;;28.10;;
908;SDS011;441;51.192;6.788;2024-02-15T14:01:59;29.63;;;28.53;;
908;SDS011;441;51.192;6.788;2024-02-15T14:04:28;28.87;;;27.77;;
908;SDS011;441;51.192;6.788;2024-02-15T14:06:57;28.70;;;27.70;;
908;SDS011;441;51.192;6.788;2024-02-15T14:09:24;29.03;;;27.93;;
908;SDS011;441;51.192;6.788;2024-02-15T14:11:52;28.40;;;27.40;;
908;SDS011;441;51.192;6.788;2024-02-15T14:14:21;28.00;;;27.00;;
908;SDS011;441;51.192;6.788;2024-02-15T14:16:48;30.53;;;29.43;;
908;SDS011;441;51.192;6.788;2024-02-15T14:19:15;29.60;;;28.50;;
908;SDS011;441;51.192;6.788;2024-02-15T14:21:42;29.87;;;28.77;;
908;SDS011;441;51.192;6.788;2024-02-15T14:24:10;29.50;;;28.40;;
908;SDS011;441;51.192;6.788;2024-02-15T14:26:37;29.40;;;28.30;;
908;SDS011;441;51.192;6.788;2024-02-15T14:29:03;28.80;;;27.80;;
908;SDS011;441;51.192;6.788;2024-02-15T14:31:32;29.10;;;28.00;;
908;SDS011;441;51.192;6.788;2024-02-15T14:34:16;29.33;;;28.23;;
908;SDS011;441;51.192;6.788;2024-02-15T14:36:45;28.80;;;27.57;;
908;SDS011;441;51.192;6.788;2024-02-15T14:39:12;28.90;;;27.87;;
908;SDS011;441;51.192;6.788;2024-02-15T14:41:40;28.10;;;27.10;;
908;SDS011;441;51.192;6.788;2024-02-15T14:44:08;27.60;;;26.60;;
908;SDS011;441;51.192;6.788;2024-02-15T14:46:39;27.90;;;26.90;;
908;SDS011;441;51.192;6.788;2024-02-15T14:49:06;28.47;;;27.47;;
908;SDS011;441;51.192;6.788;2024-02-15T14:51:33;28.43;;;27.43;;
908;SDS011;441;51.192;6.788;2024-02-15T14:54:02;28.20;;;27.10;;
908;SDS011;441;51.192;6.788;2024-02-15T14:56:29;30.23;;;29.13;;
908;SDS011;441;51.192;6.788;2024-02-15T14:58:58;29.17;;;28.10;;
908;SDS011;441;51.192;6.788;2024-02-15T15:01:25;28.20;;;27.10;;
908;SDS011;441;51.192;6.788;2024-02-15T15:03:54;28.17;;;27.17;;
908;SDS011;441;51.192;6.788;2024-02-15T15:06:23;30.13;;;29.03;;
908;SDS011;441;51.192;6.788;2024-02-15T15:09:08;29.83;;;28.73;;
908;SDS011;441;51.192;6.788;2024-02-15T15:11:53;29.30;;;28.20;;
908;SDS011;441;51.192;6.788;2024-02-15T15:14:37;27.90;;;26.90;;
908;SDS011;441;51.192;6.788;2024-02-15T15:17:04;29.50;;;28.40;;
908;SDS011;441;51.192;6.788;2024-02-15T15:19:33;29.87;;;28.77;;
908;SDS011;441;51.192;6.788;2024-02-15T15:22:02;28.37;;;27.20;;
908;SDS011;441;51.192;6.788;2024-02-15T15:24:30;27.87;;;26.87;;
908;SDS011;441;51.192;6.788;2024-02-15T15:26:58;29.27;;;28.17;;
908;SDS011;441;51.192;6.788;2024-02-15T15:29:25;29.30;;;28.30;;
908;SDS011;441;51.192;6.788;2024-02-15T15:31:53;28.63;;;27.53;;
908;SDS011;441;51.192;6.788;2024-02-15T15:34:21;28.27;;;27.27;;
908;SDS011;441;51.192;6.788;2024-02-15T15:36:49;27.53;;;26.53;;
908;SDS011;441;51.192;6.788;2024-02-15T15:39:19;27.67;;;26.67;;
908;SDS011;441;51.192;6.788;2024-02-15T15:41:49;29.73;;;28.63;;